Time;durP1;ratioP1;P1;durP2;ratioP2;P2;SDS_P1;SDS_P2;PMS_P1;PMS_P2;Temp;Humidity;BMP_temperature;BMP_pressure;BME280_temperature;BME280_humidity;BME280_pressure;Samples;Min_cycle;Max_cycle;Signal;HPM_P1;HPM_P2
2021/03/24 00:01:16;;;;;;;17.90;12.43;;;8.70;1.00;;;;;;5080200;28;20188;-61
2021/03/24 00:03:42;;;;;;;19.80;13.37;;;8.70;1.00;;;;;;5057610;28;20501;-60
2021/03/24 00:06:07;;;;;;;17.07;13.27;;;8.60;1.00;;;;;;5074348;28;20930;-62
2021/03/24 00:08:33;;;;;;;16.77;11.77;;;8.60;1.00;;;;;;5091608;28;20574;-61
2021/03/24 00:10:59;;;;;;;19.00;12.90;;;;;;;;;;5085396;28;20263;-61
2021/03/24 00:13:25;;;;;;;16.30;13.10;;;8.70;1.00;;;;;;5070344;28;20491;-61
2021/03/24 00:15:51;;;;;;;18.27;13.10;;;8.70;1.00;;;;;;5071522;28;20438;-61
2021/03/24 00:18:18;;;;;;;18.60;13.40;;;8.70;1.00;;;;;;5069945;28;20480;-61
2021/03/24 00:20:44;;;;;;;23.50;13.07;;;8.70;1.00;;;;;;5087596;28;20934;-61
2021/03/24 00:23:11;;;;;;;19.53;13.77;;;11.40;1.00;;;;;;5090383;28;20440;-62
2021/03/24 00:25:36;;;;;;;17.03;13.03;;;8.70;1.00;;;;;;5080228;28;20473;-62
2021/03/24 00:28:03;;;;;;;16.23;12.47;;;8.60;1.00;;;;;;5071604;28;20437;-61
2021/03/24 00:30:33;;;;;;;19.00;13.60;;;8.70;1.00;;;;;;5074748;28;20664;-61
2021/03/24 00:32:59;;;;;;;21.13;11.93;;;8.70;1.00;;;;;;5072896;28;20464;-60
2021/03/24 00:35:25;;;;;;;20.50;14.10;;;8.80;1.00;;;;;;5074776;28;20930;-62
2021/03/24 00:37:51;;;;;;;19.60;14.30;;;8.80;1.00;;;;;;5074465;28;20456;-61
2021/03/24 00:40:33;;;;;;;17.63;13.00;;;8.80;1.00;;;;;;5065587;28;20452;-61
2021/03/24 00:42:59;;;;;;;18.67;13.60;;;9.20;1.00;;;;;;5089014;28;20549;-61
2021/03/24 00:45:28;;;;;;;17.93;12.30;;;8.80;1.00;;;;;;5081628;28;20452;-63
2021/03/24 00:47:54;;;;;;;17.80;12.70;;;8.80;1.00;;;;;;5080133;28;20270;-63
2021/03/24 00:50:25;;;;;;;20.07;14.27;;;8.80;1.00;;;;;;5074263;28;20998;-61
2021/03/24 00:52:50;;;;;;;17.83;12.77;;;8.70;1.00;;;;;;5073890;28;20211;-61
2021/03/24 00:55:17;;;;;;;15.80;12.10;;;8.40;1.00;;;;;;5075802;28;20443;-61
2021/03/24 00:57:42;;;;;;;19.47;12.63;;;8.60;1.00;;;;;;5074188;28;20660;-61
2021/03/24 01:00:12;;;;;;;15.00;11.67;;;8.60;1.00;;;;;;5072468;28;20486;-60
2021/03/24 01:02:37;;;;;;;16.67;12.23;;;8.60;1.00;;;;;;5082219;28;20610;-61
2021/03/24 01:05:07;;;;;;;19.13;13.00;;;10.10;1.00;;;;;;5087918;28;20436;-61
2021/03/24 01:07:33;;;;;;;17.67;13.10;;;8.40;1.00;;;;;;5084298;28;20213;-60
2021/03/24 01:09:58;;;;;;;16.40;13.23;;;8.30;1.00;;;;;;5081385;28;20475;-61
2021/03/24 01:12:24;;;;;;;19.40;13.47;;;8.30;1.00;;;;;;5080575;28;20175;-61
2021/03/24 01:14:49;;;;;;;18.57;12.87;;;8.30;1.00;;;;;;5082158;28;20215;-61
2021/03/24 01:17:15;;;;;;;17.53;11.80;;;8.30;1.00;;;;;;5090672;28;20210;-61
2021/03/24 01:19:40;;;;;;;16.97;12.20;;;8.30;1.00;;;;;;5085199;28;20457;-61
2021/03/24 01:22:06;;;;;;;20.13;12.80;;;8.30;1.00;;;;;;5078846;28;20232;-61
2021/03/24 01:24:31;;;;;;;19.73;13.00;;;8.50;1.00;;;;;;5081745;28;20573;-60
2021/03/24 01:26:57;;;;;;;18.27;13.73;;;8.60;1.00;;;;;;5083817;28;20682;-60
2021/03/24 01:29:23;;;;;;;20.83;14.00;;;8.60;1.00;;;;;;5073746;28;20263;-61
2021/03/24 01:31:48;;;;;;;21.40;13.13;;;8.70;1.00;;;;;;5073805;28;20192;-61
2021/03/24 01:34:14;;;;;;;19.00;12.17;;;8.60;1.00;;;;;;5087085;28;20197;-61
2021/03/24 01:36:39;;;;;;;18.00;12.60;;;8.70;1.00;;;;;;5092139;28;20274;-60
2021/03/24 01:39:06;;;;;;;21.83;13.57;;;8.60;1.00;;;;;;5079800;28;20249;-61
2021/03/24 01:41:32;;;;;;;16.90;12.70;;;8.70;1.00;;;;;;5077965;28;20543;-62
2021/03/24 01:43:57;;;;;;;16.90;12.73;;;8.70;1.00;;;;;;5080704;28;20418;-61
2021/03/24 01:46:52;;;;;;;16.13;12.93;;;8.70;1.00;;;;;;5074447;28;20476;-61
2021/03/24 01:49:25;;;;;;;22.70;13.83;;;8.80;1.00;;;;;;5086302;28;20651;-61
2021/03/24 01:51:53;;;;;;;18.83;13.63;;;8.70;1.00;;;;;;5086031;28;20438;-61
2021/03/24 01:54:24;;;;;;;19.43;13.70;;;8.70;1.00;;;;;;5079976;28;20434;-60
2021/03/24 01:56:57;;;;;;;16.60;13.40;;;8.70;1.00;;;;;;5082589;28;20463;-61
2021/03/24 01:59:23;;;;;;;16.77;11.87;;;8.70;1.00;;;;;;5088814;28;21040;-61
2021/03/24 02:01:50;;;;;;;18.27;12.37;;;8.70;1.00;;;;;;5074336;28;20469;-62
2021/03/24 02:04:15;;;;;;;19.00;13.60;;;8.70;1.00;;;;;;5073858;28;20422;-61
2021/03/24 02:06:51;;;;;;;16.17;12.83;;;8.60;1.00;;;;;;5075850;28;20544;-61
2021/03/24 02:09:37;;;;;;;18.17;13.03;;;8.50;1.00;;;;;;5074829;28;20179;-61
2021/03/24 02:12:16;;;;;;;24.20;13.83;;;8.50;1.00;;;;;;5072866;28;20494;-60
2021/03/24 02:14:48;;;;;;;20.70;12.87;;;8.40;1.00;;;;;;5076032;28;20491;-61
2021/03/24 02:17:16;;;;;;;14.23;11.83;;;8.40;1.00;;;;;;5090537;28;20453;-60
2021/03/24 02:19:48;;;;;;;17.17;13.13;;;8.40;1.00;;;;;;5085363;28;20538;-60
2021/03/24 02:22:18;;;;;;;16.07;12.53;;;8.40;1.00;;;;;;5078383;28;20462;-61
2021/03/24 02:25:10;;;;;;;18.93;12.37;;;7.60;1.00;;;;;;5080513;28;20488;-61
2021/03/24 02:27:39;;;;;;;18.77;14.13;;;8.30;1.00;;;;;;5080813;28;20952;-61
2021/03/24 02:30:18;;;;;;;16.87;12.27;;;10.00;1.00;;;;;;5079483;28;20911;-62
2021/03/24 02:32:50;;;;;;;18.40;13.30;;;8.40;1.00;;;;;;5084292;28;20432;-61
2021/03/24 02:35:20;;;;;;;17.53;13.57;;;8.40;1.00;;;;;;5082107;28;20434;-61
2021/03/24 02:37:46;;;;;;;18.83;13.97;;;8.40;1.00;;;;;;5075429;28;20438;-61
2021/03/24 02:40:16;;;;;;;16.73;13.03;;;8.40;1.00;;;;;;5076740;28;20772;-60
2021/03/24 02:42:44;;;;;;;21.63;14.47;;;8.40;1.00;;;;;;5078216;28;20438;-60
2021/03/24 02:45:13;;;;;;;20.77;14.77;;;8.40;1.00;;;;;;5081947;28;20452;-62
2021/03/24 02:47:42;;;;;;;19.00;12.70;;;8.30;1.00;;;;;;5079385;28;20919;-61
2021/03/24 02:50:09;;;;;;;18.47;12.63;;;8.30;1.00;;;;;;5086539;28;20776;-61
2021/03/24 02:52:36;;;;;;;18.50;13.03;;;8.20;1.00;;;;;;5086277;28;20432;-61
2021/03/24 02:55:05;;;;;;;18.13;14.33;;;8.30;1.00;;;;;;5069400;28;20994;-61
2021/03/24 02:57:31;;;;;;;22.43;14.50;;;8.40;1.00;;;;;;5078431;28;20735;-60
2021/03/24 02:59:56;;;;;;;18.70;13.03;;;8.40;1.00;;;;;;5079495;28;20708;-62
2021/03/24 03:02:27;;;;;;;19.73;14.13;;;8.30;1.00;;;;;;5081518;28;20196;-63
2021/03/24 03:05:04;;;;;;;22.13;15.20;;;8.30;1.00;;;;;;5079837;28;20237;-60
2021/03/24 03:07:38;;;;;;;18.73;12.73;;;8.20;1.00;;;;;;5076067;28;20508;-60
2021/03/24 03:10:13;;;;;;;20.03;12.80;;;8.20;1.00;;;;;;5079731;28;21000;-60
2021/03/24 03:12:58;;;;;;;19.87;13.00;;;8.20;1.00;;;;;;5076855;28;20515;-61
2021/03/24 03:15:34;;;;;;;18.67;12.77;;;8.20;1.00;;;;;;5075596;28;20528;-61
2021/03/24 03:18:14;;;;;;;20.87;13.47;;;8.30;1.00;;;;;;5078226;28;20448;-61
2021/03/24 03:20:45;;;;;;;24.90;16.30;;;8.30;1.00;;;;;;5078741;28;20425;-61
2021/03/24 03:23:19;;;;;;;24.73;14.60;;;8.30;1.00;;;;;;5084797;28;20478;-61
2021/03/24 03:26:03;;;;;;;21.30;13.60;;;8.30;1.00;;;;;;5077912;28;20465;-60
2021/03/24 03:28:29;;;;;;;23.63;14.33;;;8.40;1.00;;;;;;5077482;28;20433;-62
2021/03/24 03:30:57;;;;;;;19.30;12.73;;;8.40;1.00;;;;;;5078983;28;20953;-61
2021/03/24 03:33:28;;;;;;;19.80;14.90;;;8.40;1.00;;;;;;5074379;28;20495;-61
2021/03/24 03:35:55;;;;;;;22.23;14.97;;;8.40;1.00;;;;;;5072040;28;20438;-61
2021/03/24 03:38:24;;;;;;;20.10;14.00;;;8.30;1.00;;;;;;5084021;28;20886;-60
2021/03/24 03:40:52;;;;;;;19.50;13.43;;;8.30;1.00;;;;;;5076503;28;20433;-60
2021/03/24 03:43:19;;;;;;;19.43;12.97;;;8.30;1.00;;;;;;5081946;28;20943;-61
2021/03/24 03:45:47;;;;;;;23.57;15.23;;;8.20;1.00;;;;;;5078928;28;20433;-61
2021/03/24 03:48:15;;;;;;;23.20;14.40;;;8.20;1.00;;;;;;5077881;28;20440;-61
2021/03/24 03:50:42;;;;;;;23.10;13.87;;;8.20;1.00;;;;;;5078809;28;20442;-60
2021/03/24 03:53:36;;;;;;;19.40;13.80;;;8.20;1.00;;;;;;5078984;28;20435;-61
2021/03/24 03:56:08;;;;;;;19.20;13.97;;;8.00;1.00;;;;;;5075221;28;20433;-60
2021/03/24 03:59:14;;;;;;;26.33;13.30;;;8.20;1.00;;;;;;5078563;28;20472;-61
2021/03/24 04:01:45;;;;;;;18.27;13.03;;;8.20;1.00;;;;;;5078230;28;20466;-61
2021/03/24 04:04:20;;;;;;;19.53;14.07;;;8.20;1.00;;;;;;5080192;28;20448;-61
2021/03/24 04:07:08;;;;;;;20.93;14.73;;;8.20;1.00;;;;;;5083092;28;20424;-60
2021/03/24 04:09:36;;;;;;;19.53;12.97;;;8.20;1.00;;;;;;5078207;28;20443;-61
2021/03/24 04:12:05;;;;;;;23.90;15.60;;;8.30;1.00;;;;;;5080468;28;20480;-61
2021/03/24 04:14:32;;;;;;;22.67;14.50;;;8.30;1.00;;;;;;5077133;28;20946;-61
2021/03/24 04:17:00;;;;;;;22.20;14.60;;;8.30;1.00;;;;;;5085543;28;20930;-61
2021/03/24 04:19:30;;;;;;;19.10;13.23;;;8.30;1.00;;;;;;5088630;28;20468;-61
2021/03/24 04:22:00;;;;;;;20.50;14.20;;;8.30;1.00;;;;;;5082868;28;20547;-60
2021/03/24 04:24:33;;;;;;;23.03;15.67;;;8.20;1.00;;;;;;5082867;28;20464;-61
2021/03/24 04:27:01;;;;;;;24.10;14.50;;;8.20;1.00;;;;;;5085584;28;20797;-60
2021/03/24 04:29:38;;;;;;;21.50;15.00;;;8.10;1.00;;;;;;5077943;28;20845;-61
2021/03/24 04:32:06;;;;;;;22.10;14.50;;;8.10;1.00;;;;;;5083708;28;20937;-60
2021/03/24 04:34:32;;;;;;;22.93;14.97;;;8.20;1.00;;;;;;5077114;28;20479;-60
2021/03/24 04:37:21;;;;;;;23.80;15.87;;;8.20;1.00;;;;;;5080757;28;20457;-61
2021/03/24 04:40:28;;;;;;;22.10;14.50;;;8.30;1.00;;;;;;5082402;28;20790;-61
2021/03/24 04:43:06;;;;;;;20.80;14.60;;;8.20;1.00;;;;;;5047631;28;20933;-61
2021/03/24 04:45:46;;;;;;;18.87;13.33;;;8.20;1.00;;;;;;5075258;28;20444;-61
2021/03/24 04:48:18;;;;;;;22.33;14.87;;;8.20;1.00;;;;;;5077027;28;20945;-61
2021/03/24 04:51:24;;;;;;;22.60;14.30;;;8.20;1.00;;;;;;5076766;28;20446;-61
2021/03/24 04:53:55;;;;;;;22.93;14.37;;;8.30;1.00;;;;;;5065943;28;20447;-60
2021/03/24 04:56:21;;;;;;;22.60;15.33;;;8.30;1.00;;;;;;5064246;28;20437;-61
2021/03/24 04:58:53;;;;;;;22.70;15.17;;;8.30;1.00;;;;;;5080898;28;20480;-61
2021/03/24 05:01:38;;;;;;;20.67;14.30;;;8.30;1.00;;;;;;5077923;28;20977;-61
2021/03/24 05:04:17;;;;;;;23.43;15.00;;;8.30;1.00;;;;;;5083147;28;20856;-59
2021/03/24 05:06:54;;;;;;;43.53;16.60;;;8.40;1.00;;;;;;5078475;28;20430;-60
2021/03/24 05:09:19;;;;;;;24.03;14.27;;;8.40;1.00;;;;;;5066721;28;20962;-61
2021/03/24 05:12:02;;;;;;;20.63;13.37;;;8.70;1.00;;;;;;5074704;28;20417;-61
2021/03/24 05:14:56;;;;;;;21.67;15.27;;;8.40;1.00;;;;;;5074095;28;20240;-60
2021/03/24 05:17:33;;;;;;;20.87;14.47;;;8.40;1.00;;;;;;5070643;28;20442;-59
2021/03/24 05:20:01;;;;;;;20.57;14.23;;;8.40;1.00;;;;;;5074997;28;20519;-60
2021/03/24 05:22:29;;;;;;;27.40;17.37;;;9.90;1.00;;;;;;5078164;28;20981;-61
2021/03/24 05:25:16;;;;;;;21.13;14.83;;;8.40;1.00;;;;;;5075961;28;20461;-59
2021/03/24 05:27:46;;;;;;;25.83;16.30;;;8.40;1.00;;;;;;5071517;28;20934;-60
2021/03/24 05:30:33;;;;;;;24.70;16.27;;;8.40;1.00;;;;;;5075119;28;20857;-61
2021/03/24 05:33:22;;;;;;;23.10;16.07;;;8.40;1.00;;;;;;5073130;28;20879;-59
2021/03/24 05:35:57;;;;;;;25.73;16.43;;;9.70;1.00;;;;;;5073657;28;20438;-58
2021/03/24 05:38:25;;;;;;;22.00;15.00;;;8.40;1.00;;;;;;5076762;28;20468;-59
2021/03/24 05:40:58;;;;;;;27.93;16.20;;;8.40;1.00;;;;;;5065619;28;20447;-60
2021/03/24 05:43:59;;;;;;;22.23;15.80;;;8.40;1.00;;;;;;5071615;28;20445;-60
2021/03/24 05:46:52;;;;;;;22.80;16.57;;;8.40;1.00;;;;;;5076606;28;20439;-59
2021/03/24 05:49:51;;;;;;;26.53;16.73;;;8.40;1.00;;;;;;5078717;28;20961;-60
2021/03/24 05:52:41;;;;;;;25.43;17.77;;;8.40;1.00;;;;;;5083633;28;20495;-61
2021/03/24 05:55:18;;;;;;;24.53;16.70;;;8.50;1.00;;;;;;5082936;28;20958;-59
2021/03/24 05:57:55;;;;;;;23.80;15.37;;;8.60;1.00;;;;;;5083184;28;20437;-60
2021/03/24 06:00:33;;;;;;;22.30;15.70;;;8.50;1.00;;;;;;5071042;28;20537;-60
2021/03/24 06:03:11;;;;;;;26.90;17.40;;;8.60;1.00;;;;;;5088741;28;20443;-60
2021/03/24 06:05:45;;;;;;;27.77;16.90;;;8.70;1.00;;;;;;5074906;28;20926;-61
2021/03/24 06:08:38;;;;;;;28.67;16.87;;;8.70;1.00;;;;;;5085294;28;20436;-59
2021/03/24 06:11:16;;;;;;;27.80;15.40;;;8.70;1.00;;;;;;5072615;28;20484;-61
2021/03/24 06:14:24;;;;;;;27.23;15.53;;;8.70;1.00;;;;;;5070641;28;20490;-61
2021/03/24 06:17:03;;;;;;;22.03;14.80;;;8.70;1.00;;;;;;5079740;28;20818;-61
2021/03/24 06:19:57;;;;;;;29.60;15.53;;;8.70;1.00;;;;;;5082827;28;20460;-59
2021/03/24 06:22:36;;;;;;;26.80;18.50;;;8.70;1.00;;;;;;5075388;28;20441;-60
2021/03/24 06:25:10;;;;;;;22.67;16.07;;;8.90;1.00;;;;;;5079684;28;20814;-59
2021/03/24 06:27:48;;;;;;;22.37;16.20;;;9.00;1.00;;;;;;5077712;28;20465;-58
2021/03/24 06:30:32;;;;;;;31.40;16.77;;;9.10;1.00;;;;;;5080440;28;20429;-59
2021/03/24 06:33:15;;;;;;;23.77;17.83;;;9.20;1.00;;;;;;5078942;28;20821;-60
2021/03/24 06:36:21;;;;;;;26.77;16.80;;;9.20;1.00;;;;;;5081454;28;20433;-61
2021/03/24 06:39:02;;;;;;;24.17;15.57;;;9.30;1.00;;;;;;5083948;28;20468;-59
2021/03/24 06:41:36;;;;;;;32.97;15.10;;;9.40;1.00;;;;;;5074572;28;20455;-60
2021/03/24 06:44:35;;;;;;;24.67;16.07;;;9.50;1.00;;;;;;5077679;28;20427;-60
2021/03/24 06:47:31;;;;;;;24.23;15.50;;;9.60;1.00;;;;;;5074429;28;20842;-61
2021/03/24 06:50:24;;;;;;;27.87;18.53;;;9.70;1.00;;;;;;5084267;28;20460;-59
2021/03/24 06:53:32;;;;;;;26.90;17.43;;;9.90;1.00;;;;;;5072175;28;20443;-61
2021/03/24 06:56:30;;;;;;;29.80;19.33;;;10.00;1.00;;;;;;5076913;28;20487;-60
2021/03/24 06:59:14;;;;;;;31.40;17.90;;;10.10;1.00;;;;;;5083133;28;20466;-60
2021/03/24 07:02:08;;;;;;;25.07;17.10;;;10.30;1.00;;;;;;5081577;28;20958;-61
2021/03/24 07:04:36;;;;;;;25.83;17.13;;;10.40;1.00;;;;;;5080112;28;20430;-60
2021/03/24 07:07:16;;;;;;;31.30;18.23;;;10.20;1.00;;;;;;5076973;28;20433;-61
2021/03/24 07:10:05;;;;;;;27.10;17.40;;;10.50;1.00;;;;;;5077322;28;20799;-59
2021/03/24 07:12:41;;;;;;;32.10;20.10;;;10.60;1.00;;;;;;5077827;28;20923;-59
2021/03/24 07:15:17;;;;;;;34.50;20.77;;;10.50;1.00;;;;;;5077922;28;20472;-59
2021/03/24 07:18:14;;;;;;;35.13;20.40;;;10.60;1.00;;;;;;5074626;28;20910;-59
2021/03/24 07:21:02;;;;;;;34.47;21.23;;;10.70;1.00;;;;;;5075506;28;20563;-59
2021/03/24 07:23:38;;;;;;;26.90;18.70;;;10.80;1.00;;;;;;5074511;28;20477;-60
2021/03/24 07:26:35;;;;;;;27.50;18.37;;;10.90;1.00;;;;;;5083757;28;20471;-60
2021/03/24 07:29:25;;;;;;;26.83;19.20;;;10.90;1.00;;;;;;5057527;28;20444;-60
2021/03/24 07:32:06;;;;;;;30.93;19.70;;;10.90;1.00;;;;;;5076792;28;20684;-60
2021/03/24 07:35:05;;;;;;;35.40;21.40;;;11.10;1.00;;;;;;5077021;28;20439;-59
2021/03/24 07:37:55;;;;;;;32.87;22.70;;;11.40;1.00;;;;;;5081434;28;20841;-60
2021/03/24 07:40:40;;;;;;;39.77;23.00;;;11.30;1.00;;;;;;5083854;28;20462;-58
2021/03/24 07:43:35;;;;;;;34.43;22.00;;;11.30;1.00;;;;;;5080302;28;20510;-60
2021/03/24 07:46:19;;;;;;;32.90;21.40;;;11.00;1.00;;;;;;5068786;28;20481;-60
2021/03/24 07:49:13;;;;;;;35.30;22.33;;;11.10;1.00;;;;;;5076659;28;21068;-60
2021/03/24 07:52:09;;;;;;;37.67;23.63;;;11.00;1.00;;;;;;5075729;28;20541;-60
2021/03/24 07:55:10;;;;;;;37.30;21.90;;;11.40;1.00;;;;;;5089240;28;20927;-58
2021/03/24 07:58:00;;;;;;;30.53;20.03;;;11.40;1.00;;;;;;5030901;28;20452;-59
2021/03/24 08:00:50;;;;;;;32.70;23.23;;;11.60;1.00;;;;;;5077043;28;20446;-60
2021/03/24 08:03:34;;;;;;;33.03;22.23;;;11.70;1.00;;;;;;5079431;28;20441;-59
2021/03/24 08:06:17;;;;;;;35.50;22.57;;;11.60;1.00;;;;;;5077953;28;20440;-58
2021/03/24 08:09:07;;;;;;;35.60;23.53;;;11.60;1.00;;;;;;5083055;28;20486;-60
2021/03/24 08:11:41;;;;;;;38.43;24.23;;;11.50;1.00;;;;;;5077627;28;20438;-61
2021/03/24 08:14:34;;;;;;;35.80;23.00;;;11.60;1.00;;;;;;5083734;28;20488;-60
2021/03/24 08:17:01;;;;;;;32.47;22.20;;;11.60;1.00;;;;;;5081109;28;20451;-62
2021/03/24 08:19:31;;;;;;;33.50;21.20;;;11.50;1.00;;;;;;5081811;28;20531;-59
2021/03/24 08:22:05;;;;;;;39.10;22.77;;;11.50;1.00;;;;;;5081084;28;20440;-62
2021/03/24 08:24:58;;;;;;;38.67;23.57;;;11.60;1.00;;;;;;5081155;28;20965;-60
2021/03/24 08:27:43;;;;;;;33.60;22.67;;;11.70;1.00;;;;;;5076220;28;20434;-61
2021/03/24 08:30:43;;;;;;;38.23;22.67;;;11.90;1.00;;;;;;5086556;28;20460;-61
2021/03/24 08:33:39;;;;;;;36.57;23.90;;;11.50;1.00;;;;;;5071034;28;20488;-61
2021/03/24 08:36:20;;;;;;;35.73;23.73;;;11.50;1.00;;;;;;5082625;28;20775;-60
2021/03/24 08:39:12;;;;;;;34.97;23.20;;;11.60;1.00;;;;;;5073860;28;20618;-59
2021/03/24 08:41:47;;;;;;;34.87;22.90;;;11.80;1.00;;;;;;5087963;28;20955;-59
2021/03/24 08:44:24;;;;;;;36.67;23.53;;;11.90;1.00;;;;;;5078770;28;20783;-60
2021/03/24 08:47:01;;;;;;;35.90;25.10;;;11.80;1.00;;;;;;5079704;28;20494;-60
2021/03/24 08:49:31;;;;;;;35.47;23.90;;;12.00;1.00;;;;;;5076585;28;20474;-60
2021/03/24 08:52:34;;;;;;;39.23;24.70;;;11.90;1.00;;;;;;5080624;28;20448;-60
2021/03/24 08:55:27;;;;;;;33.30;22.43;;;12.20;1.00;;;;;;5080376;28;20485;-62
2021/03/24 08:58:16;;;;;;;34.67;24.00;;;12.30;1.00;;;;;;5079448;28;20457;-62
2021/03/24 09:01:00;;;;;;;36.87;25.87;;;12.50;1.00;;;;;;5089239;28;20436;-62
2021/03/24 09:03:47;;;;;;;35.70;25.00;;;12.60;1.00;;;;;;5082276;28;20803;-60
2021/03/24 09:06:36;;;;;;;38.33;24.90;;;12.70;1.00;;;;;;5088739;28;20954;-61
2021/03/24 09:09:09;;;;;;;42.77;26.27;;;12.80;1.00;;;;;;5082141;28;20498;-61
2021/03/24 09:11:57;;;;;;;37.53;25.27;;;12.80;1.00;;;;;;5082713;28;20941;-61
2021/03/24 09:14:36;;;;;;;40.30;26.37;;;12.90;1.00;;;;;;5080927;28;20442;-61
2021/03/24 09:17:05;;;;;;;41.70;28.03;;;13.00;1.00;;;;;;5078918;28;20421;-62
2021/03/24 09:19:54;;;;;;;39.87;27.43;;;13.00;1.00;;;;;;5082541;28;20477;-61
2021/03/24 09:22:22;;;;;;;38.97;26.87;;;12.70;1.00;;;;;;5082511;28;20520;-62
2021/03/24 09:25:37;;;;;;;41.13;28.70;;;12.70;1.00;;;;;;5086708;28;20524;-63
2021/03/24 09:28:11;;;;;;;39.23;27.57;;;12.90;1.00;;;;;;4974948;28;20560;-61
2021/03/24 09:31:11;;;;;;;37.50;26.23;;;13.10;1.00;;;;;;5066649;28;20775;-61
2021/03/24 09:33:54;;;;;;;40.03;27.23;;;13.60;1.00;;;;;;5071722;28;20444;-62
2021/03/24 09:36:47;;;;;;;41.17;27.67;;;13.50;1.00;;;;;;5078572;28;20929;-60
2021/03/24 09:39:22;;;;;;;38.80;29.13;;;13.40;1.00;;;;;;5074316;28;20826;-61
2021/03/24 09:42:00;;;;;;;42.13;27.10;;;13.30;1.00;;;;;;5082422;28;20879;-61
2021/03/24 09:44:43;;;;;;;38.17;28.67;;;13.40;1.00;;;;;;5082364;28;20496;-61
2021/03/24 09:47:41;;;;;;;40.20;27.37;;;13.70;1.00;;;;;;5075226;28;20485;-61
2021/03/24 09:50:19;;;;;;;42.03;28.43;;;13.60;1.00;;;;;;5068453;28;20445;-62
2021/03/24 09:53:10;;;;;;;45.07;28.53;;;13.10;1.00;;;;;;5089861;28;20854;-61
2021/03/24 09:55:44;;;;;;;39.73;26.40;;;13.20;1.00;;;;;;5080280;28;20428;-62
2021/03/24 09:58:22;;;;;;;46.60;31.20;;;13.40;1.00;;;;;;5072888;28;20468;-60
2021/03/24 10:00:57;;;;;;;49.10;30.43;;;13.70;1.00;;;;;;5075852;28;20443;-62
2021/03/24 10:03:43;;;;;;;44.60;31.50;;;13.50;1.00;;;;;;5081626;28;20965;-61
2021/03/24 10:06:32;;;;;;;46.30;33.53;;;13.70;1.00;;;;;;5081295;28;20962;-62
2021/03/24 10:09:06;;;;;;;40.73;29.97;;;13.90;1.00;;;;;;5077302;28;20539;-62
2021/03/24 10:11:46;;;;;;;39.93;29.93;;;14.10;1.00;;;;;;5067898;28;20435;-61
2021/03/24 10:14:50;;;;;;;40.67;30.00;;;14.10;1.00;;;;;;5073457;28;20502;-62
2021/03/24 10:17:23;;;;;;;44.57;32.93;;;14.50;1.00;;;;;;5066455;28;20444;-61
2021/03/24 10:20:22;;;;;;;41.47;30.40;;;14.70;1.00;;;;;;5068576;28;20557;-61
2021/03/24 10:22:57;;;;;;;48.27;33.60;;;14.70;1.00;;;;;;5076671;28;20432;-63
2021/03/24 10:25:32;;;;;;;45.03;32.13;;;14.70;1.00;;;;;;5084603;28;20468;-61
2021/03/24 10:28:20;;;;;;;47.27;31.83;;;14.90;1.00;;;;;;5073502;28;20429;-62
2021/03/24 10:30:57;;;;;;;43.07;32.60;;;15.10;1.00;;;;;;5058693;28;20532;-62
2021/03/24 10:33:32;;;;;;;46.93;33.90;;;15.10;1.00;;;;;;5083571;28;20786;-62
2021/03/24 10:36:05;;;;;;;41.53;31.10;;;15.00;1.00;;;;;;5068479;28;20732;-61
2021/03/24 10:38:42;;;;;;;45.77;34.63;;;15.50;1.00;;;;;;5088656;28;20961;-62
2021/03/24 10:41:16;;;;;;;45.23;34.20;;;15.90;1.00;;;;;;5072005;28;20436;-63
2021/03/24 10:44:04;;;;;;;45.87;34.53;;;15.60;1.00;;;;;;5081759;28;20437;-63
2021/03/24 10:46:37;;;;;;;44.73;33.57;;;15.00;1.00;;;;;;5082243;28;20429;-61
2021/03/24 10:49:18;;;;;;;46.40;32.77;;;14.90;1.00;;;;;;5082799;28;20421;-61
2021/03/24 10:52:20;;;;;;;44.17;31.83;;;14.70;1.00;;;;;;5084488;28;20436;-62
2021/03/24 10:54:59;;;;;;;48.80;34.87;;;14.70;1.00;;;;;;5043502;28;20440;-61
2021/03/24 10:57:29;;;;;;;47.87;34.60;;;14.50;1.00;;;;;;5084694;28;20738;-62
2021/03/24 11:00:16;;;;;;;45.10;34.23;;;14.30;1.00;;;;;;5085620;28;20456;-62
2021/03/24 11:03:07;;;;;;;47.93;34.60;;;14.20;1.00;;;;;;5088176;28;20440;-62
2021/03/24 11:05:37;;;;;;;41.33;32.40;;;14.40;1.00;;;;;;5075181;28;20491;-61
2021/03/24 11:08:28;;;;;;;48.37;34.30;;;14.80;1.00;;;;;;5074161;28;20436;-62
2021/03/24 11:11:05;;;;;;;46.70;33.67;;;14.90;1.00;;;;;;5086146;28;20956;-62
2021/03/24 11:13:42;;;;;;;47.60;35.20;;;14.70;1.00;;;;;;5079277;28;20433;-61
2021/03/24 11:16:13;;;;;;;48.73;34.57;;;14.50;1.00;;;;;;5076138;28;20825;-61
2021/03/24 11:18:49;;;;;;;47.70;32.60;;;14.40;1.00;;;;;;5076885;28;20456;-62
2021/03/24 11:21:46;;;;;;;44.40;32.67;;;14.30;1.00;;;;;;5082146;28;20840;-61
2021/03/24 11:24:27;;;;;;;43.73;33.37;;;14.40;1.00;;;;;;5073872;28;20491;-62
2021/03/24 11:27:08;;;;;;;50.53;33.70;;;14.60;1.00;;;;;;5085333;28;20436;-60
2021/03/24 11:29:44;;;;;;;47.00;33.27;;;14.60;1.00;;;;;;5071381;28;20934;-61
2021/03/24 11:32:18;;;;;;;45.80;34.67;;;14.20;1.00;;;;;;5072498;28;20436;-61
2021/03/24 11:34:52;;;;;;;47.20;32.73;;;14.10;1.00;;;;;;5086068;28;20450;-60
2021/03/24 11:37:40;;;;;;;47.70;36.57;;;14.10;1.00;;;;;;5087999;28;20420;-60
2021/03/24 11:40:20;;;;;;;49.50;34.10;;;14.10;1.00;;;;;;5072690;28;20454;-61
2021/03/24 11:43:16;;;;;;;45.37;32.57;;;14.00;1.00;;;;;;5071635;28;20430;-63
2021/03/24 11:45:44;;;;;;;45.23;31.80;;;14.40;1.00;;;;;;5069791;28;20955;-61
2021/03/24 11:48:25;;;;;;;44.47;32.97;;;14.40;1.00;;;;;;5065794;28;20454;-62
2021/03/24 11:51:29;;;;;;;42.07;32.30;;;14.50;1.00;;;;;;5081235;28;20947;-60
2021/03/24 11:54:27;;;;;;;46.03;32.83;;;14.80;1.00;;;;;;5088068;28;20457;-62
2021/03/24 11:57:22;;;;;;;41.87;32.27;;;15.00;1.00;;;;;;5069764;28;20804;-61
2021/03/24 12:00:12;;;;;;;46.30;32.70;;;15.20;1.00;;;;;;5081652;28;20466;-66
2021/03/24 12:03:02;;;;;;;48.67;34.23;;;14.90;1.00;;;;;;5076327;28;20524;-61
2021/03/24 12:05:32;;;;;;;42.83;31.30;;;15.10;1.00;;;;;;5074902;28;20449;-62
2021/03/24 12:08:20;;;;;;;44.97;33.30;;;15.30;1.00;;;;;;5073637;28;20887;-62
2021/03/24 12:10:58;;;;;;;48.27;34.30;;;14.90;1.00;;;;;;5071023;28;20448;-61
2021/03/24 12:13:30;;;;;;;50.30;35.67;;;14.90;1.00;;;;;;5082034;28;20954;-62
2021/03/24 12:16:14;;;;;;;45.73;33.20;;;14.50;1.00;;;;;;5072087;28;20927;-60
2021/03/24 12:18:44;;;;;;;48.13;31.73;;;14.40;1.00;;;;;;5082156;28;20463;-61
2021/03/24 12:21:28;;;;;;;45.10;33.07;;;14.50;1.00;;;;;;5088386;28;20511;-62
2021/03/24 12:23:56;;;;;;;42.70;30.43;;;14.60;1.00;;;;;;5083277;28;20464;-62
2021/03/24 12:26:25;;;;;;;42.80;30.57;;;14.70;1.00;;;;;;5085372;28;20462;-61
2021/03/24 12:28:51;;;;;;;41.03;31.27;;;14.90;1.00;;;;;;5075501;28;20442;-62
2021/03/24 12:31:21;;;;;;;40.00;30.10;;;14.80;1.00;;;;;;5084932;28;20956;-60
2021/03/24 12:33:55;;;;;;;37.90;29.27;;;14.70;1.00;;;;;;5082617;28;20798;-61
2021/03/24 12:36:24;;;;;;;39.83;28.27;;;14.70;1.00;;;;;;5089567;28;20435;-61
2021/03/24 12:38:59;;;;;;;42.47;30.40;;;15.00;1.00;;;;;;5079239;28;20460;-61
2021/03/24 12:41:26;;;;;;;42.20;30.60;;;15.10;1.00;;;;;;5077310;28;20766;-60
2021/03/24 12:43:52;;;;;;;43.97;32.03;;;15.10;1.00;;;;;;5079081;28;20536;-62
2021/03/24 12:46:21;;;;;;;41.40;30.03;;;15.20;1.00;;;;;;5085921;28;20425;-62
2021/03/24 12:48:55;;;;;;;46.67;32.10;;;15.10;1.00;;;;;;5076236;28;20182;-61
2021/03/24 12:51:34;;;;;;;44.23;31.20;;;15.00;1.00;;;;;;5087166;28;20435;-61
2021/03/24 12:54:04;;;;;;;44.90;31.03;;;15.40;1.00;;;;;;5078065;28;20487;-61
2021/03/24 12:56:52;;;;;;;39.10;29.70;;;15.40;1.00;;;;;;5083117;28;20953;-62
2021/03/24 12:59:33;;;;;;;42.10;29.73;;;15.30;1.00;;;;;;5082666;28;20515;-61
2021/03/24 13:02:12;;;;;;;40.20;29.90;;;15.20;1.00;;;;;;5086596;28;20425;-61
2021/03/24 13:05:00;;;;;;;41.90;29.93;;;15.30;1.00;;;;;;5084973;28;20834;-61
2021/03/24 13:07:46;;;;;;;39.30;32.03;;;15.40;1.00;;;;;;5080205;28;20426;-62
2021/03/24 13:10:44;;;;;;;40.10;29.80;;;15.60;1.00;;;;;;5086034;28;20473;-62
2021/03/24 13:13:31;;;;;;;43.03;32.17;;;15.60;1.00;;;;;;5072792;28;20489;-62
2021/03/24 13:16:04;;;;;;;44.37;31.43;;;15.60;1.00;;;;;;5083557;28;20960;-61
2021/03/24 13:18:32;;;;;;;44.50;30.93;;;15.40;1.00;;;;;;5070537;28;20511;-61
2021/03/24 13:21:27;;;;;;;38.50;29.87;;;15.10;1.00;;;;;;5081958;28;20506;-61
2021/03/24 13:24:05;;;;;;;42.10;30.33;;;14.90;1.00;;;;;;5048887;28;20433;-61
2021/03/24 13:26:36;;;;;;;41.80;31.53;;;15.00;1.00;;;;;;5074757;28;20456;-61
2021/03/24 13:29:05;;;;;;;38.73;29.60;;;15.10;1.00;;;;;;5084759;28;20480;-62
2021/03/24 13:32:10;;;;;;;40.10;29.53;;;15.10;1.00;;;;;;5083578;28;20820;-62
2021/03/24 13:35:00;;;;;;;37.83;28.33;;;15.10;1.00;;;;;;5076619;28;20445;-62
2021/03/24 13:37:28;;;;;;;42.10;29.53;;;15.00;1.00;;;;;;5083914;28;20440;-61
2021/03/24 13:40:23;;;;;;;40.53;28.80;;;15.00;1.00;;;;;;5075412;28;20513;-61